Letzte 24h
Datum & Zeit Temp. Luft-
feuchte
Wind Nieder-
schlag
Luftdruck Tendenz
IN OUT IN OUT Richtung Min. Max.
2019.02.14 22:57 6.3 °C 6.2 °C 66% 53% SW 219 ° 18 km/h 36 km/h 0.0 mm 1038.70 hPa langsam steigend
23:57 6.3 °C 6.1 °C 66% 51% SW 225 ° 15 km/h 31 km/h 0.0 mm 1038.70 hPa langsam steigend
2019.02.15 00:57 6.1 °C 5.3 °C 66% 56% SW 227 ° 13 km/h 23 km/h 0.0 mm 1038.70 hPa gleichbleibend
01:57 5.9 °C 4.8 °C 67% 58% SW 215 ° 14 km/h 22 km/h 0.0 mm 1038.40 hPa langsam fallend
02:57 5.6 °C 5.2 °C 67% 57% WSW 244 ° 16 km/h 28 km/h 0.0 mm 1038.20 hPa langsam fallend
03:57 5.5 °C 4.7 °C 68% 62% SSW 213 ° 11 km/h 22 km/h 0.0 mm 1037.90 hPa langsam fallend
04:57 5.4 °C 4.6 °C 68% 61% SW 221 ° 14 km/h 23 km/h 0.0 mm 1038.10 hPa langsam fallend
05:57 5.3 °C 4.1 °C 68% 62% SW 229 ° 15 km/h 22 km/h 0.0 mm 1037.80 hPa langsam fallend
06:57 5.2 °C 4.2 °C 68% 62% SW 222 ° 12 km/h 23 km/h 0.0 mm 1038.00 hPa gleichbleibend
07:57 5.1 °C 2.3 °C 68% 65% SSW 193 ° 7 km/h 16 km/h 0.0 mm 1038.70 hPa langsam steigend
08:57 5.1 °C 5.9 °C 69% 61% SSW 199 ° 8 km/h 16 km/h 0.0 mm 1038.80 hPa langsam steigend
09:57 6.2 °C 7.5 °C 69% 57% SSW 200 ° 8 km/h 17 km/h 0.0 mm 1039.10 hPa langsam steigend
10:57 7.1 °C 8.8 °C 70% 48% WSW 253 ° 10 km/h 21 km/h 0.0 mm 1039.00 hPa langsam steigend
11:57 8.6 °C 10.5 °C 72% 40% WNW 287 ° 8 km/h 16 km/h 0.0 mm 1039.20 hPa langsam steigend
12:57 9.8 °C 11.1 °C 69% 40% WNW 296 ° 8 km/h 13 km/h 0.0 mm 1038.90 hPa langsam fallend
13:57 10.6 °C 12.5 °C 68% 36% WNW 293 ° 7 km/h 13 km/h 0.0 mm 1038.70 hPa langsam fallend
14:57 11.2 °C 12.6 °C 66% 38% NW 317 ° 5 km/h 12 km/h 0.0 mm 1038.20 hPa langsam fallend
15:57 11.5 °C 11.9 °C 69% 40% WNW 289 ° 5 km/h 9 km/h 0.0 mm 1037.80 hPa langsam fallend
16:57 11.4 °C 10.5 °C 69% 43% WSW 241 ° 6 km/h 12 km/h 0.0 mm 1037.40 hPa langsam fallend
17:57 10.6 °C 9.5 °C 67% 44% SW 217 ° 5 km/h 12 km/h 0.0 mm 1037.60 hPa langsam fallend
18:57 9.8 °C 8.9 °C 66% 49% SSW 208 ° 7 km/h 12 km/h 0.0 mm 1037.50 hPa langsam fallend
19:57 8.9 °C 7.8 °C 67% 50% SSW 195 ° 4 km/h 12 km/h 0.0 mm 1037.00 hPa langsam fallend
20:57 8.0 °C 6.1 °C 66% 58% SW 225 ° 1 km/h 7 km/h 0.0 mm 1036.80 hPa langsam fallend
21:57 7.2 °C 5.2 °C 67% 60% WSW 242 ° 2 km/h 9 km/h 0.0 mm 1036.70 hPa langsam fallend

 

Verlauf: letzte 24h
WIND   Windrose
(Klicke ins Bild, um den Hintergrund abzuschalten)
WIND   Windverkauf 2.5h
TEMP   Temperatur 2.5h
Druck   Luftdruck 2.5h
Regen   Luftdruck 2.5h